sensor_id;sensor_type;location;lat;lon;timestamp;temperature;humidity
72320;SHT30;60269;52.502;16.732;2023-02-21T00:01:41;8.58;91.04
72320;SHT30;60269;52.502;16.732;2023-02-21T00:05:31;8.66;90.57
72320;SHT30;60269;52.502;16.732;2023-02-21T00:09:22;8.70;89.83
72320;SHT30;60269;52.502;16.732;2023-02-21T00:13:12;8.76;89.61
72320;SHT30;60269;52.502;16.732;2023-02-21T00:17:03;8.72;91.18
72320;SHT30;60269;52.502;16.732;2023-02-21T00:20:54;8.35;93.92
72320;SHT30;60269;52.502;16.732;2023-02-21T00:24:45;8.34;93.76
72320;SHT30;60269;52.502;16.732;2023-02-21T00:28:35;8.35;93.99
72320;SHT30;60269;52.502;16.732;2023-02-21T00:32:26;8.17;95.95
72320;SHT30;60269;52.502;16.732;2023-02-21T00:36:17;8.04;96.83
72320;SHT30;60269;52.502;16.732;2023-02-21T00:40:11;7.98;97.34
72320;SHT30;60269;52.502;16.732;2023-02-21T00:44:02;7.97;97.74
72320;SHT30;60269;52.502;16.732;2023-02-21T00:47:53;7.93;98.00
72320;SHT30;60269;52.502;16.732;2023-02-21T00:51:44;8.05;96.47
72320;SHT30;60269;52.502;16.732;2023-02-21T00:55:35;7.93;97.28
72320;SHT30;60269;52.502;16.732;2023-02-21T00:59:28;7.89;97.56
72320;SHT30;60269;52.502;16.732;2023-02-21T01:03:19;7.76;98.10
72320;SHT30;60269;52.502;16.732;2023-02-21T01:07:09;7.71;98.22
72320;SHT30;60269;52.502;16.732;2023-02-21T01:11:01;7.79;97.85
72320;SHT30;60269;52.502;16.732;2023-02-21T01:14:52;7.86;97.21
72320;SHT30;60269;52.502;16.732;2023-02-21T01:18:42;7.83;97.31
72320;SHT30;60269;52.502;16.732;2023-02-21T01:22:33;7.81;97.41
72320;SHT30;60269;52.502;16.732;2023-02-21T01:26:24;7.86;97.32
72320;SHT30;60269;52.502;16.732;2023-02-21T01:30:14;7.81;97.35
72320;SHT30;60269;52.502;16.732;2023-02-21T01:34:06;7.91;96.78
72320;SHT30;60269;52.502;16.732;2023-02-21T01:37:56;7.89;96.57
72320;SHT30;60269;52.502;16.732;2023-02-21T01:41:48;7.94;96.34
72320;SHT30;60269;52.502;16.732;2023-02-21T01:45:43;7.98;96.27
72320;SHT30;60269;52.502;16.732;2023-02-21T01:49:39;7.97;96.28
72320;SHT30;60269;52.502;16.732;2023-02-21T01:53:31;8.01;96.02
72320;SHT30;60269;52.502;16.732;2023-02-21T01:57:23;8.15;95.19
72320;SHT30;60269;52.502;16.732;2023-02-21T02:01:35;8.17;95.09
72320;SHT30;60269;52.502;16.732;2023-02-21T02:05:28;8.12;95.56
72320;SHT30;60269;52.502;16.732;2023-02-21T02:09:20;8.18;95.15
72320;SHT30;60269;52.502;16.732;2023-02-21T02:17:23;8.15;95.27
72320;SHT30;60269;52.502;16.732;2023-02-21T02:24:59;8.32;93.29
72320;SHT30;60269;52.502;16.732;2023-02-21T02:37:09;8.29;93.62
72320;SHT30;60269;52.502;16.732;2023-02-21T02:44:23;8.15;93.87
72320;SHT30;60269;52.502;16.732;2023-02-21T02:48:02;8.29;92.83
72320;SHT30;60269;52.502;16.732;2023-02-21T02:51:38;8.37;92.09
72320;SHT30;60269;52.502;16.732;2023-02-21T02:55:45;8.38;92.03
72320;SHT30;60269;52.502;16.732;2023-02-21T02:59:22;8.10;94.21
72320;SHT30;60269;52.502;16.732;2023-02-21T03:03:06;8.08;94.47
72320;SHT30;60269;52.502;16.732;2023-02-21T03:07:11;8.00;95.77
72320;SHT30;60269;52.502;16.732;2023-02-21T03:11:02;7.84;96.69
72320;SHT30;60269;52.502;16.732;2023-02-21T03:14:47;7.69;96.50
72320;SHT30;60269;52.502;16.732;2023-02-21T03:18:28;7.39;98.46
72320;SHT30;60269;52.502;16.732;2023-02-21T03:22:05;7.29;98.68
72320;SHT30;60269;52.502;16.732;2023-02-21T03:25:38;7.22;97.74
72320;SHT30;60269;52.502;16.732;2023-02-21T03:29:13;7.02;97.73
72320;SHT30;60269;52.502;16.732;2023-02-21T03:32:48;7.16;95.24
72320;SHT30;60269;52.502;16.732;2023-02-21T03:36:23;7.08;95.46
72320;SHT30;60269;52.502;16.732;2023-02-21T03:39:56;7.05;95.03
72320;SHT30;60269;52.502;16.732;2023-02-21T03:43:28;7.18;94.28
72320;SHT30;60269;52.502;16.732;2023-02-21T03:47:00;7.16;93.90
72320;SHT30;60269;52.502;16.732;2023-02-21T03:50:32;7.22;92.16
72320;SHT30;60269;52.502;16.732;2023-02-21T03:54:05;7.21;91.63
72320;SHT30;60269;52.502;16.732;2023-02-21T03:57:38;7.29;89.62
72320;SHT30;60269;52.502;16.732;2023-02-21T04:01:10;7.28;89.05
72320;SHT30;60269;52.502;16.732;2023-02-21T04:04:42;7.23;89.05
72320;SHT30;60269;52.502;16.732;2023-02-21T04:08:15;7.26;87.65
72320;SHT30;60269;52.502;16.732;2023-02-21T04:11:47;7.15;88.31
72320;SHT30;60269;52.502;16.732;2023-02-21T04:15:19;7.18;88.16
72320;SHT30;60269;52.502;16.732;2023-02-21T04:18:51;7.21;87.83
72320;SHT30;60269;52.502;16.732;2023-02-21T04:22:23;7.29;86.82
72320;SHT30;60269;52.502;16.732;2023-02-21T04:25:56;7.25;86.42
72320;SHT30;60269;52.502;16.732;2023-02-21T04:29:28;7.38;86.08
72320;SHT30;60269;52.502;16.732;2023-02-21T04:33:00;7.22;86.68
72320;SHT30;60269;52.502;16.732;2023-02-21T04:36:32;7.12;86.99
72320;SHT30;60269;52.502;16.732;2023-02-21T04:40:04;7.32;85.64
72320;SHT30;60269;52.502;16.732;2023-02-21T04:43:36;7.31;85.56
72320;SHT30;60269;52.502;16.732;2023-02-21T04:47:08;7.25;85.35
72320;SHT30;60269;52.502;16.732;2023-02-21T04:50:40;7.26;85.37
72320;SHT30;60269;52.502;16.732;2023-02-21T04:54:12;7.29;85.02
72320;SHT30;60269;52.502;16.732;2023-02-21T04:57:45;7.31;84.87
72320;SHT30;60269;52.502;16.732;2023-02-21T05:01:18;7.23;85.43
72320;SHT30;60269;52.502;16.732;2023-02-21T05:04:52;7.18;85.66
72320;SHT30;60269;52.502;16.732;2023-02-21T05:08:24;7.09;86.08
72320;SHT30;60269;52.502;16.732;2023-02-21T05:11:59;7.07;85.46
72320;SHT30;60269;52.502;16.732;2023-02-21T05:15:31;7.15;83.83
72320;SHT30;60269;52.502;16.732;2023-02-21T05:19:03;7.09;82.35
72320;SHT30;60269;52.502;16.732;2023-02-21T05:22:40;7.07;82.83
72320;SHT30;60269;52.502;16.732;2023-02-21T05:26:12;6.85;83.56
72320;SHT30;60269;52.502;16.732;2023-02-21T05:29:46;6.87;82.89
72320;SHT30;60269;52.502;16.732;2023-02-21T05:33:22;6.79;83.18
72320;SHT30;60269;52.502;16.732;2023-02-21T05:36:54;6.77;83.25
72320;SHT30;60269;52.502;16.732;2023-02-21T05:40:26;6.91;82.38
72320;SHT30;60269;52.502;16.732;2023-02-21T05:43:59;6.98;82.46
72320;SHT30;60269;52.502;16.732;2023-02-21T05:47:34;7.04;82.42
72320;SHT30;60269;52.502;16.732;2023-02-21T05:51:06;7.11;82.16
72320;SHT30;60269;52.502;16.732;2023-02-21T05:54:38;7.08;82.34
72320;SHT30;60269;52.502;16.732;2023-02-21T05:58:10;6.94;82.50
72320;SHT30;60269;52.502;16.732;2023-02-21T06:01:42;7.09;81.44
72320;SHT30;60269;52.502;16.732;2023-02-21T06:05:14;6.93;81.07
72320;SHT30;60269;52.502;16.732;2023-02-21T06:08:47;7.07;80.15
72320;SHT30;60269;52.502;16.732;2023-02-21T06:12:20;6.97;81.12
72320;SHT30;60269;52.502;16.732;2023-02-21T06:15:53;7.01;81.07
72320;SHT30;60269;52.502;16.732;2023-02-21T06:19:25;7.07;80.90
72320;SHT30;60269;52.502;16.732;2023-02-21T06:22:59;7.09;80.50
72320;SHT30;60269;52.502;16.732;2023-02-21T06:26:30;7.11;80.28
72320;SHT30;60269;52.502;16.732;2023-02-21T06:30:04;7.16;79.17
72320;SHT30;60269;52.502;16.732;2023-02-21T06:33:36;7.05;80.00
72320;SHT30;60269;52.502;16.732;2023-02-21T06:37:08;6.91;80.41
72320;SHT30;60269;52.502;16.732;2023-02-21T06:40:40;7.22;78.03
72320;SHT30;60269;52.502;16.732;2023-02-21T06:44:12;7.25;78.49
72320;SHT30;60269;52.502;16.732;2023-02-21T06:47:44;7.33;78.33
72320;SHT30;60269;52.502;16.732;2023-02-21T06:51:18;7.35;78.06
72320;SHT30;60269;52.502;16.732;2023-02-21T06:54:51;7.28;77.23
72320;SHT30;60269;52.502;16.732;2023-02-21T06:58:23;7.22;76.88
72320;SHT30;60269;52.502;16.732;2023-02-21T07:01:56;7.26;77.05
72320;SHT30;60269;52.502;16.732;2023-02-21T07:05:28;7.36;76.81
72320;SHT30;60269;52.502;16.732;2023-02-21T07:09:05;7.32;77.44
72320;SHT30;60269;52.502;16.732;2023-02-21T07:12:38;7.31;77.62
72320;SHT30;60269;52.502;16.732;2023-02-21T07:16:10;7.36;77.83
72320;SHT30;60269;52.502;16.732;2023-02-21T07:19:42;7.42;77.70
72320;SHT30;60269;52.502;16.732;2023-02-21T07:23:14;7.41;77.14
72320;SHT30;60269;52.502;16.732;2023-02-21T07:26:47;7.36;76.90
72320;SHT30;60269;52.502;16.732;2023-02-21T07:30:19;7.36;76.84
72320;SHT30;60269;52.502;16.732;2023-02-21T07:33:57;7.35;76.27
72320;SHT30;60269;52.502;16.732;2023-02-21T07:37:36;7.35;76.68
72320;SHT30;60269;52.502;16.732;2023-02-21T07:41:13;7.39;76.55
72320;SHT30;60269;52.502;16.732;2023-02-21T07:44:46;7.38;75.16
72320;SHT30;60269;52.502;16.732;2023-02-21T07:48:21;7.41;74.61
72320;SHT30;60269;52.502;16.732;2023-02-21T07:51:53;7.43;75.12
72320;SHT30;60269;52.502;16.732;2023-02-21T07:55:25;7.43;74.02
72320;SHT30;60269;52.502;16.732;2023-02-21T07:58:57;7.48;74.34
72320;SHT30;60269;52.502;16.732;2023-02-21T08:02:29;7.50;72.81
72320;SHT30;60269;52.502;16.732;2023-02-21T08:06:02;7.48;73.89
72320;SHT30;60269;52.502;16.732;2023-02-21T08:09:36;7.48;74.32
72320;SHT30;60269;52.502;16.732;2023-02-21T08:13:09;7.42;73.95
72320;SHT30;60269;52.502;16.732;2023-02-21T08:16:41;7.46;74.15
72320;SHT30;60269;52.502;16.732;2023-02-21T08:20:14;7.49;74.35
72320;SHT30;60269;52.502;16.732;2023-02-21T08:23:46;7.49;72.97
72320;SHT30;60269;52.502;16.732;2023-02-21T08:27:18;7.42;73.01
72320;SHT30;60269;52.502;16.732;2023-02-21T08:30:52;7.39;72.88
72320;SHT30;60269;52.502;16.732;2023-02-21T08:34:24;7.46;71.58
72320;SHT30;60269;52.502;16.732;2023-02-21T08:38:00;7.38;72.10
72320;SHT30;60269;52.502;16.732;2023-02-21T08:41:45;7.42;72.69
72320;SHT30;60269;52.502;16.732;2023-02-21T08:45:19;7.42;72.30
72320;SHT30;60269;52.502;16.732;2023-02-21T08:48:51;7.45;72.22
72320;SHT30;60269;52.502;16.732;2023-02-21T08:52:23;7.41;71.98
72320;SHT30;60269;52.502;16.732;2023-02-21T08:55:55;7.38;72.81
72320;SHT30;60269;52.502;16.732;2023-02-21T08:59:27;7.36;73.93
72320;SHT30;60269;52.502;16.732;2023-02-21T09:03:04;7.41;71.76
72320;SHT30;60269;52.502;16.732;2023-02-21T09:06:36;7.46;71.78
72320;SHT30;60269;52.502;16.732;2023-02-21T09:10:10;7.43;70.88
72320;SHT30;60269;52.502;16.732;2023-02-21T09:13:43;7.42;71.69
72320;SHT30;60269;52.502;16.732;2023-02-21T09:17:18;7.41;71.87
72320;SHT30;60269;52.502;16.732;2023-02-21T09:20:51;7.42;72.90
72320;SHT30;60269;52.502;16.732;2023-02-21T09:24:26;7.39;72.40
72320;SHT30;60269;52.502;16.732;2023-02-21T09:27:59;7.46;72.27
72320;SHT30;60269;52.502;16.732;2023-02-21T09:31:32;7.42;72.65
72320;SHT30;60269;52.502;16.732;2023-02-21T09:35:05;7.42;72.77
72320;SHT30;60269;52.502;16.732;2023-02-21T09:38:40;7.42;72.72
72320;SHT30;60269;52.502;16.732;2023-02-21T09:42:16;7.32;73.53
72320;SHT30;60269;52.502;16.732;2023-02-21T09:45:52;7.31;73.33
72320;SHT30;60269;52.502;16.732;2023-02-21T09:49:31;7.32;73.67
72320;SHT30;60269;52.502;16.732;2023-02-21T09:53:06;7.33;73.37
72320;SHT30;60269;52.502;16.732;2023-02-21T09:56:39;7.29;73.79
72320;SHT30;60269;52.502;16.732;2023-02-21T10:00:20;7.36;73.33
72320;SHT30;60269;52.502;16.732;2023-02-21T10:04:22;7.39;73.33
72320;SHT30;60269;52.502;16.732;2023-02-21T10:15:51;7.43;73.57
72320;SHT30;60269;52.502;16.732;2023-02-21T10:19:40;7.62;72.72
72320;SHT30;60269;52.502;16.732;2023-02-21T10:23:22;7.62;72.51
72320;SHT30;60269;52.502;16.732;2023-02-21T10:27:08;7.65;71.51
72320;SHT30;60269;52.502;16.732;2023-02-21T10:30:44;7.83;72.23
72320;SHT30;60269;52.502;16.732;2023-02-21T10:34:25;7.84;72.06
72320;SHT30;60269;52.502;16.732;2023-02-21T10:37:58;7.79;71.87
72320;SHT30;60269;52.502;16.732;2023-02-21T10:41:34;7.80;72.41
72320;SHT30;60269;52.502;16.732;2023-02-21T10:45:11;7.94;71.81
72320;SHT30;60269;52.502;16.732;2023-02-21T10:48:47;7.84;71.47
72320;SHT30;60269;52.502;16.732;2023-02-21T10:52:22;7.87;71.85
72320;SHT30;60269;52.502;16.732;2023-02-21T10:56:07;7.87;71.44
72320;SHT30;60269;52.502;16.732;2023-02-21T10:59:40;7.94;71.78
72320;SHT30;60269;52.502;16.732;2023-02-21T11:03:23;7.86;71.12
72320;SHT30;60269;52.502;16.732;2023-02-21T11:07:01;7.93;70.77
72320;SHT30;60269;52.502;16.732;2023-02-21T11:10:40;7.95;71.05
72320;SHT30;60269;52.502;16.732;2023-02-21T11:14:20;8.12;70.91
72320;SHT30;60269;52.502;16.732;2023-02-21T11:18:05;8.08;70.74
72320;SHT30;60269;52.502;16.732;2023-02-21T11:21:43;8.00;70.73
72320;SHT30;60269;52.502;16.732;2023-02-21T11:25:30;8.18;70.90
72320;SHT30;60269;52.502;16.732;2023-02-21T11:29:23;8.20;70.18
72320;SHT30;60269;52.502;16.732;2023-02-21T11:32:58;8.10;70.20
72320;SHT30;60269;52.502;16.732;2023-02-21T11:36:37;8.05;70.07
72320;SHT30;60269;52.502;16.732;2023-02-21T11:40:23;8.10;70.21
72320;SHT30;60269;52.502;16.732;2023-02-21T11:43:56;8.01;70.44
72320;SHT30;60269;52.502;16.732;2023-02-21T11:47:43;8.00;70.70
72320;SHT30;60269;52.502;16.732;2023-02-21T11:55:20;8.21;70.22
72320;SHT30;60269;52.502;16.732;2023-02-21T11:59:05;8.34;70.25
72320;SHT30;60269;52.502;16.732;2023-02-21T12:07:06;8.22;69.51
72320;SHT30;60269;52.502;16.732;2023-02-21T12:26:50;8.28;69.49
72320;SHT30;60269;52.502;16.732;2023-02-21T12:30:42;8.25;68.84
72320;SHT30;60269;52.502;16.732;2023-02-21T12:50:11;8.22;69.00
72320;SHT30;60269;52.502;16.732;2023-02-21T12:53:54;8.04;69.57
72320;SHT30;60269;52.502;16.732;2023-02-21T12:57:36;8.11;69.88
72320;SHT30;60269;52.502;16.732;2023-02-21T13:01:24;8.05;68.98
72320;SHT30;60269;52.502;16.732;2023-02-21T13:05:04;8.08;69.03
72320;SHT30;60269;52.502;16.732;2023-02-21T13:12:31;8.11;69.82
72320;SHT30;60269;52.502;16.732;2023-02-21T13:16:07;8.02;69.18
72320;SHT30;60269;52.502;16.732;2023-02-21T13:20:02;8.07;69.97
72320;SHT30;60269;52.502;16.732;2023-02-21T13:23:58;8.05;70.27
72320;SHT30;60269;52.502;16.732;2023-02-21T13:31:21;8.01;70.24
72320;SHT30;60269;52.502;16.732;2023-02-21T13:35:01;8.08;70.57
72320;SHT30;60269;52.502;16.732;2023-02-21T13:38:39;8.05;69.80
72320;SHT30;60269;52.502;16.732;2023-02-21T13:42:17;8.00;69.73
72320;SHT30;60269;52.502;16.732;2023-02-21T13:45:51;8.02;70.10
72320;SHT30;60269;52.502;16.732;2023-02-21T13:49:40;7.97;70.00
72320;SHT30;60269;52.502;16.732;2023-02-21T13:53:20;7.93;69.82
72320;SHT30;60269;52.502;16.732;2023-02-21T13:56:52;8.04;69.95
72320;SHT30;60269;52.502;16.732;2023-02-21T14:03:56;8.01;70.10
72320;SHT30;60269;52.502;16.732;2023-02-21T14:08:28;7.94;69.84
72320;SHT30;60269;52.502;16.732;2023-02-21T14:11:54;7.90;70.72
72320;SHT30;60269;52.502;16.732;2023-02-21T14:15:44;7.93;70.43
72320;SHT30;60269;52.502;16.732;2023-02-21T14:19:21;7.95;69.75
72320;SHT30;60269;52.502;16.732;2023-02-21T14:22:57;8.01;69.49
72320;SHT30;60269;52.502;16.732;2023-02-21T14:33:41;8.01;69.76
72320;SHT30;60269;52.502;16.732;2023-02-21T14:37:34;8.00;69.41
72320;SHT30;60269;52.502;16.732;2023-02-21T14:56:38;7.91;70.35
72320;SHT30;60269;52.502;16.732;2023-02-21T15:11:34;7.79;71.05
72320;SHT30;60269;52.502;16.732;2023-02-21T15:15:15;7.77;71.17
72320;SHT30;60269;52.502;16.732;2023-02-21T15:18:59;7.69;71.19
72320;SHT30;60269;52.502;16.732;2023-02-21T15:22:31;7.70;70.95
72320;SHT30;60269;52.502;16.732;2023-02-21T15:26:29;7.74;70.97
72320;SHT30;60269;52.502;16.732;2023-02-21T15:30:18;7.73;71.15
72320;SHT30;60269;52.502;16.732;2023-02-21T15:33:51;7.70;71.36
72320;SHT30;60269;52.502;16.732;2023-02-21T15:37:27;7.73;70.96
72320;SHT30;60269;52.502;16.732;2023-02-21T15:41:08;7.65;71.80
72320;SHT30;60269;52.502;16.732;2023-02-21T15:44:57;7.55;71.31
72320;SHT30;60269;52.502;16.732;2023-02-21T15:48:30;7.53;71.59
72320;SHT30;60269;52.502;16.732;2023-02-21T15:52:03;7.48;72.08
72320;SHT30;60269;52.502;16.732;2023-02-21T15:55:35;7.49;71.51
72320;SHT30;60269;52.502;16.732;2023-02-21T15:59:12;7.52;71.68
72320;SHT30;60269;52.502;16.732;2023-02-21T16:02:48;7.49;72.17
72320;SHT30;60269;52.502;16.732;2023-02-21T16:06:23;7.43;72.61
72320;SHT30;60269;52.502;16.732;2023-02-21T16:10:01;7.35;73.28
72320;SHT30;60269;52.502;16.732;2023-02-21T16:13:36;7.39;73.10
72320;SHT30;60269;52.502;16.732;2023-02-21T16:20:44;7.38;73.78
72320;SHT30;60269;52.502;16.732;2023-02-21T16:24:31;7.32;73.78
72320;SHT30;60269;52.502;16.732;2023-02-21T16:28:10;7.28;74.20
72320;SHT30;60269;52.502;16.732;2023-02-21T16:31:43;7.23;74.57
72320;SHT30;60269;52.502;16.732;2023-02-21T16:35:22;7.19;75.17
72320;SHT30;60269;52.502;16.732;2023-02-21T16:38:56;7.05;75.76
72320;SHT30;60269;52.502;16.732;2023-02-21T16:42:28;7.00;76.35
72320;SHT30;60269;52.502;16.732;2023-02-21T16:46:06;6.91;76.61
72320;SHT30;60269;52.502;16.732;2023-02-21T16:49:40;6.90;76.99
72320;SHT30;60269;52.502;16.732;2023-02-21T16:53:13;6.93;77.27
72320;SHT30;60269;52.502;16.732;2023-02-21T16:56:46;6.83;77.38
72320;SHT30;60269;52.502;16.732;2023-02-21T17:00:21;6.84;77.79
72320;SHT30;60269;52.502;16.732;2023-02-21T17:03:54;6.66;78.25
72320;SHT30;60269;52.502;16.732;2023-02-21T17:07:28;6.54;78.84
72320;SHT30;60269;52.502;16.732;2023-02-21T17:11:00;6.66;78.10
72320;SHT30;60269;52.502;16.732;2023-02-21T17:14:33;6.74;78.15
72320;SHT30;60269;52.502;16.732;2023-02-21T17:18:05;6.81;78.12
72320;SHT30;60269;52.502;16.732;2023-02-21T17:21:37;6.77;77.97
72320;SHT30;60269;52.502;16.732;2023-02-21T17:25:10;6.69;79.03
72320;SHT30;60269;52.502;16.732;2023-02-21T17:28:42;6.43;79.68
72320;SHT30;60269;52.502;16.732;2023-02-21T17:32:14;6.25;80.65
72320;SHT30;60269;52.502;16.732;2023-02-21T17:35:47;6.06;81.32
72320;SHT30;60269;52.502;16.732;2023-02-21T17:39:20;5.93;81.99
72320;SHT30;60269;52.502;16.732;2023-02-21T17:42:55;5.84;82.37
72320;SHT30;60269;52.502;16.732;2023-02-21T17:46:27;5.79;82.37
72320;SHT30;60269;52.502;16.732;2023-02-21T17:49:59;5.84;82.28
72320;SHT30;60269;52.502;16.732;2023-02-21T17:53:34;5.68;82.56
72320;SHT30;60269;52.502;16.732;2023-02-21T17:57:06;5.68;82.68
72320;SHT30;60269;52.502;16.732;2023-02-21T18:00:41;5.67;82.53
72320;SHT30;60269;52.502;16.732;2023-02-21T18:04:13;5.58;82.78
72320;SHT30;60269;52.502;16.732;2023-02-21T18:07:51;5.67;82.08
72320;SHT30;60269;52.502;16.732;2023-02-21T18:11:24;5.64;82.10
72320;SHT30;60269;52.502;16.732;2023-02-21T18:14:58;5.57;82.24
72320;SHT30;60269;52.502;16.732;2023-02-21T18:18:32;5.57;81.98
72320;SHT30;60269;52.502;16.732;2023-02-21T18:22:05;5.57;81.29
72320;SHT30;60269;52.502;16.732;2023-02-21T18:25:37;5.47;81.82
72320;SHT30;60269;52.502;16.732;2023-02-21T18:29:09;5.47;81.68
72320;SHT30;60269;52.502;16.732;2023-02-21T18:32:44;5.32;82.37
72320;SHT30;60269;52.502;16.732;2023-02-21T18:36:17;5.32;81.94
72320;SHT30;60269;52.502;16.732;2023-02-21T18:39:52;5.25;82.57
72320;SHT30;60269;52.502;16.732;2023-02-21T18:43:27;5.25;82.20
72320;SHT30;60269;52.502;16.732;2023-02-21T18:47:00;5.25;82.40
72320;SHT30;60269;52.502;16.732;2023-02-21T18:50:33;5.20;82.38
72320;SHT30;60269;52.502;16.732;2023-02-21T18:54:06;5.15;82.66
72320;SHT30;60269;52.502;16.732;2023-02-21T18:57:39;5.02;83.27
72320;SHT30;60269;52.502;16.732;2023-02-21T19:01:13;4.98;83.41
72320;SHT30;60269;52.502;16.732;2023-02-21T19:04:46;4.92;83.57
72320;SHT30;60269;52.502;16.732;2023-02-21T19:08:19;4.88;83.92
72320;SHT30;60269;52.502;16.732;2023-02-21T19:11:52;4.77;84.48
72320;SHT30;60269;52.502;16.732;2023-02-21T19:15:24;4.79;84.46
72320;SHT30;60269;52.502;16.732;2023-02-21T19:18:58;4.81;84.30
72320;SHT30;60269;52.502;16.732;2023-02-21T19:22:30;4.75;84.48
72320;SHT30;60269;52.502;16.732;2023-02-21T19:26:04;4.60;85.13
72320;SHT30;60269;52.502;16.732;2023-02-21T19:29:36;4.50;85.45
72320;SHT30;60269;52.502;16.732;2023-02-21T19:33:08;4.29;86.47
72320;SHT30;60269;52.502;16.732;2023-02-21T19:36:40;4.14;87.16
72320;SHT30;60269;52.502;16.732;2023-02-21T19:40:12;4.16;87.10
72320;SHT30;60269;52.502;16.732;2023-02-21T19:43:44;4.23;86.81
72320;SHT30;60269;52.502;16.732;2023-02-21T19:47:17;4.29;86.68
72320;SHT30;60269;52.502;16.732;2023-02-21T19:50:49;4.21;86.73
72320;SHT30;60269;52.502;16.732;2023-02-21T19:54:22;4.26;86.60
72320;SHT30;60269;52.502;16.732;2023-02-21T19:58:00;4.33;86.42
72320;SHT30;60269;52.502;16.732;2023-02-21T20:01:38;4.51;85.74
72320;SHT30;60269;52.502;16.732;2023-02-21T20:05:11;4.65;85.25
72320;SHT30;60269;52.502;16.732;2023-02-21T20:08:47;4.82;84.56
72320;SHT30;60269;52.502;16.732;2023-02-21T20:12:19;4.95;84.04
72320;SHT30;60269;52.502;16.732;2023-02-21T20:15:54;5.02;83.58
72320;SHT30;60269;52.502;16.732;2023-02-21T20:19:26;5.05;83.49
72320;SHT30;60269;52.502;16.732;2023-02-21T20:22:59;5.15;83.24
72320;SHT30;60269;52.502;16.732;2023-02-21T20:26:33;5.15;83.12
72320;SHT30;60269;52.502;16.732;2023-02-21T20:30:06;5.12;83.39
72320;SHT30;60269;52.502;16.732;2023-02-21T20:33:39;5.15;83.33
72320;SHT30;60269;52.502;16.732;2023-02-21T20:37:11;5.15;84.21
72320;SHT30;60269;52.502;16.732;2023-02-21T20:40:45;5.15;83.75
72320;SHT30;60269;52.502;16.732;2023-02-21T20:44:17;5.18;83.56
72320;SHT30;60269;52.502;16.732;2023-02-21T20:47:49;5.18;83.86
72320;SHT30;60269;52.502;16.732;2023-02-21T20:51:32;5.18;83.82
72320;SHT30;60269;52.502;16.732;2023-02-21T20:55:05;5.18;83.88
72320;SHT30;60269;52.502;16.732;2023-02-21T20:58:40;5.15;84.14
72320;SHT30;60269;52.502;16.732;2023-02-21T21:02:12;5.16;84.30
72320;SHT30;60269;52.502;16.732;2023-02-21T21:05:47;5.15;84.47
72320;SHT30;60269;52.502;16.732;2023-02-21T21:09:18;5.09;84.76
72320;SHT30;60269;52.502;16.732;2023-02-21T21:13:00;5.08;84.80
72320;SHT30;60269;52.502;16.732;2023-02-21T21:16:33;5.09;84.80
72320;SHT30;60269;52.502;16.732;2023-02-21T21:20:07;5.13;84.91
72320;SHT30;60269;52.502;16.732;2023-02-21T21:23:40;5.05;84.94
72320;SHT30;60269;52.502;16.732;2023-02-21T21:27:12;5.05;84.83
72320;SHT30;60269;52.502;16.732;2023-02-21T21:30:46;5.04;85.22
72320;SHT30;60269;52.502;16.732;2023-02-21T21:34:20;4.88;85.81
72320;SHT30;60269;52.502;16.732;2023-02-21T21:37:55;4.61;86.91
72320;SHT30;60269;52.502;16.732;2023-02-21T21:41:28;4.39;87.79
72320;SHT30;60269;52.502;16.732;2023-02-21T21:45:03;4.33;88.06
72320;SHT30;60269;52.502;16.732;2023-02-21T21:48:43;4.29;88.16
72320;SHT30;60269;52.502;16.732;2023-02-21T21:52:15;4.26;88.07
72320;SHT30;60269;52.502;16.732;2023-02-21T21:55:47;4.16;88.39
72320;SHT30;60269;52.502;16.732;2023-02-21T21:59:21;4.10;88.67
72320;SHT30;60269;52.502;16.732;2023-02-21T22:02:57;4.07;88.74
72320;SHT30;60269;52.502;16.732;2023-02-21T22:06:30;3.89;89.42
72320;SHT30;60269;52.502;16.732;2023-02-21T22:10:02;3.82;90.20
72320;SHT30;60269;52.502;16.732;2023-02-21T22:13:35;3.74;90.74
72320;SHT30;60269;52.502;16.732;2023-02-21T22:17:07;3.61;91.34
72320;SHT30;60269;52.502;16.732;2023-02-21T22:20:39;3.47;91.94
72320;SHT30;60269;52.502;16.732;2023-02-21T22:24:11;3.52;92.23
72320;SHT30;60269;52.502;16.732;2023-02-21T22:27:47;3.45;92.39
72320;SHT30;60269;52.502;16.732;2023-02-21T22:31:19;3.31;92.71
72320;SHT30;60269;52.502;16.732;2023-02-21T22:34:51;3.24;93.03
72320;SHT30;60269;52.502;16.732;2023-02-21T22:38:23;3.33;93.31
72320;SHT30;60269;52.502;16.732;2023-02-21T22:41:56;3.42;93.07
72320;SHT30;60269;52.502;16.732;2023-02-21T22:45:29;3.40;93.03
72320;SHT30;60269;52.502;16.732;2023-02-21T22:49:04;3.37;92.89
72320;SHT30;60269;52.502;16.732;2023-02-21T22:52:35;3.26;93.29
72320;SHT30;60269;52.502;16.732;2023-02-21T22:56:11;3.23;93.37
72320;SHT30;60269;52.502;16.732;2023-02-21T22:59:43;3.42;93.08
72320;SHT30;60269;52.502;16.732;2023-02-21T23:03:16;3.68;92.21
72320;SHT30;60269;52.502;16.732;2023-02-21T23:06:48;3.78;91.51
72320;SHT30;60269;52.502;16.732;2023-02-21T23:10:22;3.88;90.99
72320;SHT30;60269;52.502;16.732;2023-02-21T23:13:54;3.93;90.45
72320;SHT30;60269;52.502;16.732;2023-02-21T23:17:28;3.92;90.47
72320;SHT30;60269;52.502;16.732;2023-02-21T23:21:02;3.77;90.76
72320;SHT30;60269;52.502;16.732;2023-02-21T23:24:35;3.51;91.57
72320;SHT30;60269;52.502;16.732;2023-02-21T23:28:09;3.47;91.81
72320;SHT30;60269;52.502;16.732;2023-02-21T23:31:43;3.50;91.96
72320;SHT30;60269;52.502;16.732;2023-02-21T23:35:15;3.57;91.65
72320;SHT30;60269;52.502;16.732;2023-02-21T23:38:49;3.68;91.27
72320;SHT30;60269;52.502;16.732;2023-02-21T23:42:20;3.83;90.79
72320;SHT30;60269;52.502;16.732;2023-02-21T23:45:56;3.89;90.31
72320;SHT30;60269;52.502;16.732;2023-02-21T23:49:28;4.03;90.04
72320;SHT30;60269;52.502;16.732;2023-02-21T23:53:03;4.11;89.46
72320;SHT30;60269;52.502;16.732;2023-02-21T23:56:35;4.19;89.19
